createdAt,value
2023-03-15T00:01:46.736Z,100339.03
2023-03-15T00:04:14.121Z,100350.00
2023-03-15T00:06:40.966Z,100365.47
2023-03-15T00:09:07.698Z,100395.72
2023-03-15T00:11:34.299Z,100356.34
2023-03-15T00:14:02.396Z,100342.69
2023-03-15T00:16:29.487Z,100389.84
2023-03-15T00:18:56.494Z,100405.50
2023-03-15T00:21:23.617Z,100380.84
2023-03-15T00:23:50.455Z,100395.41
2023-03-15T00:26:17.222Z,100417.88
2023-03-15T00:28:43.786Z,100421.13
2023-03-15T00:31:19.093Z,100404.22
2023-03-15T00:33:45.794Z,100404.88
2023-03-15T00:36:13.012Z,100403.13
2023-03-15T00:38:41.183Z,100393.84
2023-03-15T00:41:13.631Z,100376.25
2023-03-15T00:43:40.491Z,100376.06
2023-03-15T00:46:07.719Z,100373.97
2023-03-15T00:48:35.489Z,100368.25
2023-03-15T00:51:07.002Z,100329.47
2023-03-15T00:53:34.585Z,100388.78
2023-03-15T00:56:10.083Z,100386.66
2023-03-15T00:58:37.265Z,100370.91
2023-03-15T01:01:15.881Z,100396.94
2023-03-15T01:03:43.742Z,100395.66
2023-03-15T01:06:19.605Z,100390.84
2023-03-15T01:08:46.569Z,100382.13
2023-03-15T01:11:18.882Z,100398.28
2023-03-15T01:13:45.629Z,100401.09
2023-03-15T01:16:13.854Z,100402.66
2023-03-15T01:18:44.457Z,100399.34
2023-03-15T01:21:13.547Z,100395.22
2023-03-15T01:23:40.521Z,100389.13
2023-03-15T01:26:09.964Z,100379.22
2023-03-15T01:28:36.547Z,100392.81
2023-03-15T01:31:03.591Z,100380.53
2023-03-15T01:33:30.291Z,100373.78
2023-03-15T01:36:15.211Z,100390.44
2023-03-15T01:38:41.777Z,100369.47
2023-03-15T01:41:08.387Z,100404.25
2023-03-15T01:43:35.208Z,100395.66
2023-03-15T01:46:03.388Z,100389.16
2023-03-15T01:48:40.072Z,100397.81
2023-03-15T01:51:15.717Z,100391.59
2023-03-15T01:53:43.937Z,100396.31
2023-03-15T01:56:10.682Z,100364.66
2023-03-15T01:58:38.450Z,100377.53
2023-03-15T02:01:05.161Z,100393.31
2023-03-15T02:03:35.879Z,100408.97
2023-03-15T02:06:05.649Z,100378.75
2023-03-15T02:08:34.237Z,100406.09
2023-03-15T02:11:03.145Z,100374.91
2023-03-15T02:13:30.435Z,100355.38
2023-03-15T02:15:57.143Z,100401.44
2023-03-15T02:18:23.905Z,100413.13
2023-03-15T02:20:53.598Z,100412.84
2023-03-15T02:23:22.251Z,100423.28
2023-03-15T02:26:16.935Z,100427.09
2023-03-15T02:28:43.860Z,100428.22
2023-03-15T02:31:11.038Z,100431.19
2023-03-15T02:33:44.267Z,100400.94
2023-03-15T02:36:16.984Z,100435.22
2023-03-15T02:38:43.858Z,100435.41
2023-03-15T02:41:12.006Z,100437.53
2023-03-15T02:43:39.696Z,100437.75
2023-03-15T02:46:06.552Z,100393.88
2023-03-15T02:48:34.369Z,100449.38
2023-03-15T02:51:02.119Z,100437.69
2023-03-15T02:53:31.962Z,100404.25
2023-03-15T02:55:58.547Z,100454.63
2023-03-15T02:58:25.674Z,100416.34
2023-03-15T03:00:53.835Z,100458.88
2023-03-15T03:03:20.498Z,100443.59
2023-03-15T03:05:47.293Z,100416.28
2023-03-15T03:08:16.378Z,100436.41
2023-03-15T03:10:46.344Z,100467.59
2023-03-15T03:13:12.998Z,100436.00
2023-03-15T03:15:39.475Z,100470.94
2023-03-15T03:18:06.061Z,100488.66
2023-03-15T03:20:33.476Z,100457.78
2023-03-15T03:23:06.124Z,100493.69
2023-03-15T03:25:33.622Z,100490.47
2023-03-15T03:28:03.899Z,100492.19
2023-03-15T03:30:31.169Z,100491.88
2023-03-15T03:32:58.117Z,100414.53
2023-03-15T03:35:24.710Z,100509.00
2023-03-15T03:37:54.033Z,100440.69
2023-03-15T03:40:20.529Z,100481.16
2023-03-15T03:42:47.064Z,100523.53
2023-03-15T03:45:13.596Z,100523.00
2023-03-15T03:47:40.308Z,100528.53
2023-03-15T03:50:07.385Z,100535.78
2023-03-15T03:52:33.906Z,100544.78
2023-03-15T03:55:00.559Z,100523.63
2023-03-15T03:57:27.137Z,100546.56
2023-03-15T03:59:53.765Z,100392.28
2023-03-15T04:02:20.308Z,100527.53
2023-03-15T04:04:54.823Z,100538.75
2023-03-15T04:07:21.394Z,100561.09
2023-03-15T04:09:47.999Z,100548.53
2023-03-15T04:12:14.723Z,100531.22
2023-03-15T04:14:41.434Z,100571.59
2023-03-15T04:17:08.781Z,100572.59
2023-03-15T04:19:35.298Z,100581.44
2023-03-15T04:22:06.690Z,100584.16
2023-03-15T04:24:34.747Z,100562.50
2023-03-15T04:27:02.368Z,100582.13
2023-03-15T04:29:29.073Z,100584.81
2023-03-15T04:32:01.465Z,100582.78
2023-03-15T04:34:31.443Z,100593.66
2023-03-15T04:36:58.082Z,100592.44
2023-03-15T04:39:25.011Z,100590.69
2023-03-15T04:41:51.549Z,100598.06
2023-03-15T04:44:18.143Z,100598.31
2023-03-15T04:46:44.985Z,100572.34
2023-03-15T04:49:12.027Z,100604.56
2023-03-15T04:51:38.614Z,100602.13
2023-03-15T04:54:05.211Z,100621.47
2023-03-15T04:56:31.821Z,100616.03
2023-03-15T04:58:58.577Z,100606.13
2023-03-15T05:01:29.656Z,100618.59
2023-03-15T05:03:56.914Z,100635.13
2023-03-15T05:06:23.948Z,100632.31
2023-03-15T05:08:51.121Z,100629.09
2023-03-15T05:11:17.815Z,100603.50
2023-03-15T05:13:44.282Z,100529.91
2023-03-15T05:16:10.883Z,100611.84
2023-03-15T05:18:37.739Z,100621.47
2023-03-15T05:21:06.097Z,100614.25
2023-03-15T05:23:34.050Z,100637.06
2023-03-15T05:26:00.770Z,100641.16
2023-03-15T05:28:28.136Z,100650.50
2023-03-15T05:30:54.945Z,100647.84
2023-03-15T05:33:21.738Z,100623.59
2023-03-15T05:35:48.907Z,100623.84
2023-03-15T05:38:15.905Z,100666.69
2023-03-15T05:40:46.550Z,100670.44
2023-03-15T05:43:13.199Z,100632.72
2023-03-15T05:45:40.804Z,100658.09
2023-03-15T05:48:07.382Z,100654.22
2023-03-15T05:50:34.094Z,100686.13
2023-03-15T05:53:00.838Z,100692.63
2023-03-15T05:55:27.444Z,100709.34
2023-03-15T05:57:54.057Z,100718.28
2023-03-15T06:00:20.974Z,100679.22
2023-03-15T06:02:47.682Z,100699.28
2023-03-15T06:05:14.332Z,100726.47
2023-03-15T06:07:41.204Z,100708.91
2023-03-15T06:10:08.266Z,100711.38
2023-03-15T06:12:35.045Z,100740.16
2023-03-15T06:15:01.571Z,100747.38
2023-03-15T06:17:28.352Z,100741.47
2023-03-15T06:19:54.894Z,100721.72
2023-03-15T06:22:21.443Z,100728.91
2023-03-15T06:24:48.047Z,100731.75
2023-03-15T06:27:14.625Z,100742.72
2023-03-15T06:29:41.214Z,100761.28
2023-03-15T06:32:08.163Z,100729.38
2023-03-15T06:34:34.838Z,100766.44
2023-03-15T06:37:01.337Z,100743.50
2023-03-15T06:39:27.825Z,100760.59
2023-03-15T06:41:57.327Z,100758.03
2023-03-15T06:44:24.349Z,100731.03
2023-03-15T06:46:50.894Z,100783.09
2023-03-15T06:49:17.373Z,100781.31
2023-03-15T06:51:45.388Z,100795.81
2023-03-15T06:54:12.211Z,100794.94
2023-03-15T06:56:38.913Z,100795.38
2023-03-15T06:59:05.801Z,100769.31
2023-03-15T07:01:32.557Z,100768.59
2023-03-15T07:03:59.169Z,100807.22
2023-03-15T07:06:28.227Z,100811.69
2023-03-15T07:08:54.912Z,100813.56
2023-03-15T07:11:21.468Z,100814.91
2023-03-15T07:13:48.400Z,100812.47
2023-03-15T07:16:15.039Z,100773.97
2023-03-15T07:18:41.616Z,100811.31
2023-03-15T07:21:08.337Z,100800.91
2023-03-15T07:23:34.893Z,100807.00
2023-03-15T07:26:01.725Z,100795.34
2023-03-15T07:28:28.456Z,100828.16
2023-03-15T07:31:00.324Z,100812.25
2023-03-15T07:33:28.617Z,100847.75
2023-03-15T07:35:55.847Z,100840.78
2023-03-15T07:38:24.017Z,100818.06
2023-03-15T07:40:50.645Z,100805.53
2023-03-15T07:43:17.506Z,100822.97
2023-03-15T07:45:44.165Z,100831.63
2023-03-15T07:48:11.275Z,100860.22
2023-03-15T07:50:37.983Z,100846.78
2023-03-15T07:53:05.350Z,100855.13
2023-03-15T07:55:35.747Z,100878.03
2023-03-15T07:58:03.103Z,100858.13
2023-03-15T08:00:29.753Z,100845.25
2023-03-15T08:02:56.409Z,100835.03
2023-03-15T08:05:23.066Z,100858.13
2023-03-15T08:07:50.532Z,100890.09
2023-03-15T08:10:18.248Z,100884.44
2023-03-15T08:12:44.881Z,100875.44
2023-03-15T08:15:15.143Z,100863.69
2023-03-15T08:17:42.262Z,100896.41
2023-03-15T08:20:11.719Z,100881.84
2023-03-15T08:22:39.005Z,100914.41
2023-03-15T08:25:06.243Z,100914.31
2023-03-15T08:27:32.818Z,100894.06
2023-03-15T08:29:59.437Z,100908.69
2023-03-15T08:32:26.130Z,100815.25
2023-03-15T08:34:53.277Z,100936.66
2023-03-15T08:37:20.118Z,100926.44
2023-03-15T08:39:47.079Z,100936.00
2023-03-15T08:42:13.828Z,100930.31
2023-03-15T08:44:40.571Z,100951.22
2023-03-15T08:47:07.347Z,100948.34
2023-03-15T08:49:34.174Z,100961.66
2023-03-15T08:52:00.820Z,100924.84
2023-03-15T08:54:27.594Z,100974.09
2023-03-15T08:56:54.223Z,100949.72
2023-03-15T08:59:31.285Z,100983.41
2023-03-15T09:02:00.464Z,100994.03
2023-03-15T09:04:27.115Z,100998.72
2023-03-15T09:06:54.331Z,100991.63
2023-03-15T09:09:21.246Z,100972.25
2023-03-15T09:11:47.869Z,100990.69
2023-03-15T09:14:14.691Z,100986.94
2023-03-15T09:16:41.460Z,100995.97
2023-03-15T09:19:08.383Z,101006.28
2023-03-15T09:21:34.987Z,100977.75
2023-03-15T09:24:01.801Z,100994.75
2023-03-15T09:26:28.367Z,100988.88
2023-03-15T09:28:55.275Z,101012.22
2023-03-15T09:31:21.818Z,100987.06
2023-03-15T09:33:49.666Z,100996.28
2023-03-15T09:36:16.190Z,101007.72
2023-03-15T09:38:43.963Z,101004.13
2023-03-15T09:41:21.066Z,101005.53
2023-03-15T09:44:09.844Z,101009.19
2023-03-15T09:46:42.574Z,100986.56
2023-03-15T09:49:10.195Z,101014.25
2023-03-15T09:51:51.018Z,100971.41
2023-03-15T09:54:32.290Z,100962.47
2023-03-15T09:57:04.310Z,101011.09
2023-03-15T09:59:44.305Z,101029.44
2023-03-15T10:02:14.662Z,101020.56
2023-03-15T10:04:43.657Z,100972.03
2023-03-15T10:07:14.447Z,100989.84
2023-03-15T10:09:44.322Z,100960.81
2023-03-15T10:12:14.081Z,100973.25
2023-03-15T10:15:08.884Z,100996.00
2023-03-15T10:17:58.602Z,101008.13
2023-03-15T10:20:27.859Z,100996.16
2023-03-15T10:23:05.931Z,101014.00
2023-03-15T10:25:33.307Z,100981.78
2023-03-15T10:28:05.030Z,100999.78
2023-03-15T10:30:34.164Z,101002.88
2023-03-15T10:33:20.295Z,100966.66
2023-03-15T10:35:47.250Z,100986.28
2023-03-15T10:38:18.344Z,100991.13
2023-03-15T10:40:56.516Z,100973.38
2023-03-15T10:43:24.416Z,100979.47
2023-03-15T10:46:00.557Z,100987.59
2023-03-15T10:48:29.433Z,101002.06
2023-03-15T10:50:58.402Z,101004.19
2023-03-15T10:53:25.854Z,100971.53
2023-03-15T10:56:05.565Z,101012.56
2023-03-15T10:59:12.441Z,101007.66
2023-03-15T11:01:40.235Z,101004.00
2023-03-15T11:04:07.829Z,101015.47
2023-03-15T11:06:42.399Z,101013.78
2023-03-15T11:09:15.298Z,100985.13
2023-03-15T11:11:53.462Z,101012.94
2023-03-15T11:14:20.686Z,101016.53
2023-03-15T11:16:51.095Z,101016.69
2023-03-15T11:19:23.877Z,101024.56
2023-03-15T11:21:51.620Z,101002.16
2023-03-15T11:24:23.843Z,101014.00
2023-03-15T11:26:53.611Z,101018.00
2023-03-15T11:29:26.536Z,101025.06
2023-03-15T11:31:54.629Z,101012.66
2023-03-15T11:34:33.360Z,101013.22
2023-03-15T11:37:09.103Z,100980.34
2023-03-15T11:40:08.877Z,101008.25
2023-03-15T11:42:44.830Z,101024.34
2023-03-15T11:45:28.685Z,101021.53
2023-03-15T11:48:03.851Z,101021.22
2023-03-15T11:50:30.601Z,101017.66
2023-03-15T11:53:02.907Z,101022.22
2023-03-15T11:55:29.895Z,100999.34
2023-03-15T11:57:58.001Z,101009.88
2023-03-15T12:00:26.791Z,101020.38
2023-03-15T12:02:56.427Z,101016.88
2023-03-15T12:05:47.866Z,101028.22
2023-03-15T12:08:18.523Z,101022.00
2023-03-15T12:10:47.290Z,101024.88
2023-03-15T12:13:20.912Z,101024.28
2023-03-15T12:15:48.701Z,100998.88
2023-03-15T12:18:19.188Z,101003.50
2023-03-15T12:20:52.420Z,100994.97
2023-03-15T12:23:18.930Z,101015.25
2023-03-15T12:26:25.051Z,100999.59
2023-03-15T12:29:03.944Z,101020.25
2023-03-15T12:31:50.697Z,101016.91
2023-03-15T12:34:25.680Z,101036.19
2023-03-15T12:36:56.084Z,101042.25
2023-03-15T12:39:41.094Z,101057.34
2023-03-15T12:42:13.298Z,101052.22
2023-03-15T12:44:42.728Z,101065.28
2023-03-15T12:47:11.702Z,101059.97
2023-03-15T12:49:46.155Z,101048.41
2023-03-15T12:52:14.010Z,101050.75
2023-03-15T12:54:50.112Z,101050.69
2023-03-15T12:57:30.750Z,101060.91
2023-03-15T13:00:01.036Z,101057.50
2023-03-15T13:02:43.218Z,101056.97
2023-03-15T13:05:13.784Z,101056.69
2023-03-15T13:07:52.741Z,101066.50
2023-03-15T13:10:19.630Z,101052.69
2023-03-15T13:12:53.511Z,101049.31
2023-03-15T13:15:33.181Z,101062.81
2023-03-15T13:18:18.054Z,101030.97
2023-03-15T13:20:55.024Z,101043.28
2023-03-15T13:23:31.087Z,101054.47
2023-03-15T13:26:08.997Z,101054.72
2023-03-15T13:28:49.393Z,101049.31
2023-03-15T13:31:19.022Z,101056.09
2023-03-15T13:33:50.362Z,101052.13
2023-03-15T13:36:19.423Z,101054.06
2023-03-15T13:38:49.631Z,101047.31
2023-03-15T13:41:30.940Z,101032.44
2023-03-15T13:44:00.455Z,101032.03
2023-03-15T13:46:30.479Z,101062.31
2023-03-15T13:48:57.413Z,101035.34
2023-03-15T13:51:35.186Z,101058.91
2023-03-15T13:54:05.756Z,101031.41
2023-03-15T13:56:49.390Z,101057.06
2023-03-15T13:59:17.549Z,101019.19
2023-03-15T14:01:44.539Z,101043.63
2023-03-15T14:04:18.410Z,101060.56
2023-03-15T14:06:48.405Z,101057.03
2023-03-15T14:09:21.596Z,101049.41
2023-03-15T14:12:18.981Z,101062.50
2023-03-15T14:14:53.398Z,101013.19
2023-03-15T14:17:29.222Z,101067.91
2023-03-15T14:20:14.843Z,101060.97
2023-03-15T14:22:44.107Z,101050.47
2023-03-15T14:25:21.655Z,101077.81
2023-03-15T14:27:48.260Z,101049.81
2023-03-15T14:30:22.945Z,101061.53
2023-03-15T14:32:55.572Z,101056.38
2023-03-15T14:35:25.360Z,101081.28
2023-03-15T14:38:07.758Z,101076.78
2023-03-15T14:40:38.648Z,101079.34
2023-03-15T14:43:08.605Z,101087.81
2023-03-15T14:45:38.908Z,101085.91
2023-03-15T14:48:08.444Z,101087.53
2023-03-15T14:50:40.810Z,101093.69
2023-03-15T14:53:09.189Z,101086.59
2023-03-15T14:55:37.091Z,101088.78
2023-03-15T14:58:10.064Z,101084.47
2023-03-15T15:00:36.765Z,101066.75
2023-03-15T15:03:09.224Z,101100.63
2023-03-15T15:05:36.509Z,101074.00
2023-03-15T15:08:06.896Z,101080.19
2023-03-15T15:10:34.793Z,101102.31
2023-03-15T15:13:06.500Z,101101.09
2023-03-15T15:15:40.799Z,101099.56
2023-03-15T15:18:14.410Z,101105.47
2023-03-15T15:20:41.999Z,101069.16
2023-03-15T15:23:17.401Z,101106.09
2023-03-15T15:25:46.523Z,101085.50
2023-03-15T15:28:27.359Z,100992.47
2023-03-15T15:31:00.788Z,101063.59
2023-03-15T15:33:27.849Z,101116.28
2023-03-15T15:35:56.084Z,101117.31
2023-03-15T15:38:26.808Z,101112.84
2023-03-15T15:40:53.689Z,101095.88
2023-03-15T15:43:21.291Z,101083.13
2023-03-15T15:45:47.875Z,101056.41
2023-03-15T15:48:14.548Z,101106.84
2023-03-15T15:50:41.098Z,101081.69
2023-03-15T15:53:09.887Z,101089.72
2023-03-15T15:55:36.812Z,101064.00
2023-03-15T15:58:05.281Z,101102.53
2023-03-15T16:00:32.105Z,101114.97
2023-03-15T16:02:59.452Z,101074.22
2023-03-15T16:05:27.775Z,101108.44
2023-03-15T16:07:55.517Z,101089.94
2023-03-15T16:10:25.511Z,101087.16
2023-03-15T16:12:53.690Z,100993.28
2023-03-15T16:15:20.612Z,101092.94
2023-03-15T16:17:47.542Z,101109.94
2023-03-15T16:20:15.739Z,101113.34
2023-03-15T16:22:45.547Z,101081.72
2023-03-15T16:25:18.005Z,101087.28
2023-03-15T16:27:46.714Z,101094.06
2023-03-15T16:30:24.688Z,101105.63
2023-03-15T16:32:57.169Z,101101.44
2023-03-15T16:35:30.121Z,101113.09
2023-03-15T16:37:58.240Z,101118.34
2023-03-15T16:40:28.576Z,101121.03
2023-03-15T16:42:55.712Z,101081.72
2023-03-15T16:45:23.263Z,101080.13
2023-03-15T16:47:50.073Z,101109.03
2023-03-15T16:50:17.222Z,101123.66
2023-03-15T16:52:46.227Z,101108.28
2023-03-15T16:55:14.692Z,101102.72
2023-03-15T16:57:41.429Z,101102.28
2023-03-15T17:00:17.386Z,101130.72
2023-03-15T17:02:49.152Z,101115.91
2023-03-15T17:05:18.958Z,101123.31
2023-03-15T17:07:47.768Z,101138.06
2023-03-15T17:10:23.090Z,101113.94
2023-03-15T17:12:52.359Z,101142.56
2023-03-15T17:15:25.422Z,101141.63
2023-03-15T17:17:53.483Z,101130.94
2023-03-15T17:20:28.300Z,101151.84
2023-03-15T17:23:04.812Z,101142.72
2023-03-15T17:25:32.279Z,101130.53
2023-03-15T17:28:00.207Z,101157.38
2023-03-15T17:30:32.045Z,101092.66
2023-03-15T17:32:58.771Z,101145.50
2023-03-15T17:35:30.027Z,101157.91
2023-03-15T17:37:56.752Z,101153.97
2023-03-15T17:40:34.751Z,101161.72
2023-03-15T17:43:03.558Z,101152.69
2023-03-15T17:45:33.118Z,101139.00
2023-03-15T17:48:01.267Z,101097.22
2023-03-15T17:50:30.538Z,101171.03
2023-03-15T17:52:59.345Z,101153.34
2023-03-15T17:55:27.435Z,101177.34
2023-03-15T17:57:55.578Z,101180.31
2023-03-15T18:00:23.907Z,101180.50
2023-03-15T18:02:55.613Z,101184.53
2023-03-15T18:05:25.206Z,101191.47
2023-03-15T18:07:58.666Z,101185.72
2023-03-15T18:10:30.954Z,101166.94
2023-03-15T18:12:57.526Z,101164.56
2023-03-15T18:15:24.095Z,101156.94
2023-03-15T18:17:50.950Z,101166.78
2023-03-15T18:20:19.194Z,101186.97
2023-03-15T18:22:45.831Z,101168.28
2023-03-15T18:25:24.198Z,101167.53
2023-03-15T18:27:51.440Z,101187.53
2023-03-15T18:30:19.988Z,101182.09
2023-03-15T18:32:47.050Z,101181.56
2023-03-15T18:35:19.325Z,101190.19
2023-03-15T18:37:46.597Z,101201.31
2023-03-15T18:40:15.442Z,101199.34
2023-03-15T18:42:42.556Z,101200.75
2023-03-15T18:45:21.275Z,101204.34
2023-03-15T18:47:48.983Z,101210.97
2023-03-15T18:50:16.657Z,101160.59
2023-03-15T18:52:43.354Z,101198.88
2023-03-15T18:55:12.217Z,101214.16
2023-03-15T18:57:41.564Z,101214.31
2023-03-15T19:00:13.685Z,101219.25
2023-03-15T19:02:45.442Z,101213.66
2023-03-15T19:05:13.868Z,101211.81
2023-03-15T19:07:41.346Z,101214.69
2023-03-15T19:10:11.572Z,101228.81
2023-03-15T19:12:39.807Z,101223.22
2023-03-15T19:15:10.581Z,101206.16
2023-03-15T19:17:40.615Z,101203.06
2023-03-15T19:20:08.966Z,101230.03
2023-03-15T19:22:35.594Z,101195.75
2023-03-15T19:25:02.427Z,101234.72
2023-03-15T19:27:29.080Z,101213.50
2023-03-15T19:29:55.685Z,101239.66
2023-03-15T19:32:22.581Z,101211.28
2023-03-15T19:34:49.268Z,101224.75
2023-03-15T19:37:16.024Z,101212.84
2023-03-15T19:39:42.604Z,101238.66
2023-03-15T19:42:09.148Z,101244.50
2023-03-15T19:44:36.135Z,101232.91
2023-03-15T19:47:02.824Z,101223.66
2023-03-15T19:49:29.312Z,101248.84
2023-03-15T19:51:56.028Z,101191.97
2023-03-15T19:54:22.704Z,101235.91
2023-03-15T19:56:49.724Z,101243.16
2023-03-15T19:59:16.242Z,101249.00
2023-03-15T20:01:43.010Z,101246.06
2023-03-15T20:04:09.602Z,101244.16
2023-03-15T20:06:36.321Z,101259.22
2023-03-15T20:09:03.889Z,101242.47
2023-03-15T20:11:30.517Z,101222.91
2023-03-15T20:13:57.188Z,101256.31
2023-03-15T20:16:23.720Z,101219.66
2023-03-15T20:18:55.240Z,101271.38
2023-03-15T20:21:21.916Z,101252.94
2023-03-15T20:23:49.343Z,101273.78
2023-03-15T20:26:17.650Z,101138.09
2023-03-15T20:28:45.120Z,101278.91
2023-03-15T20:31:14.380Z,101258.56
2023-03-15T20:33:41.814Z,101277.34
2023-03-15T20:36:08.598Z,101255.09
2023-03-15T20:38:37.162Z,101255.03
2023-03-15T20:41:05.096Z,101246.97
2023-03-15T20:43:32.997Z,101237.47
2023-03-15T20:46:01.142Z,101274.09
2023-03-15T20:48:29.028Z,101270.97
2023-03-15T20:50:57.930Z,101236.88
2023-03-15T20:53:25.173Z,101242.91
2023-03-15T20:55:51.947Z,101263.56
2023-03-15T20:58:18.635Z,101284.09
2023-03-15T21:00:45.424Z,101279.22
2023-03-15T21:03:13.627Z,101219.91
2023-03-15T21:05:41.214Z,101254.09
2023-03-15T21:08:08.469Z,101276.63
2023-03-15T21:10:35.588Z,101270.44
2023-03-15T21:13:09.513Z,101237.78
2023-03-15T21:15:46.309Z,101266.25
2023-03-15T21:18:17.226Z,101270.50
2023-03-15T21:20:44.317Z,101261.06
2023-03-15T21:23:11.517Z,101216.31
2023-03-15T21:25:38.421Z,101246.88
2023-03-15T21:28:05.324Z,101275.47
2023-03-15T21:30:32.977Z,101258.03
2023-03-15T21:33:00.013Z,101261.63
2023-03-15T21:35:26.696Z,101257.81
2023-03-15T21:37:53.536Z,101113.63
2023-03-15T21:40:20.422Z,101272.13
2023-03-15T21:42:47.857Z,101234.81
2023-03-15T21:45:14.677Z,101262.69
2023-03-15T21:47:41.517Z,101246.03
2023-03-15T21:50:08.985Z,101254.69
2023-03-15T21:52:35.510Z,101220.34
2023-03-15T21:55:02.125Z,101249.91
2023-03-15T21:57:29.013Z,101245.09
2023-03-15T21:59:55.529Z,101259.81
2023-03-15T22:02:22.101Z,101255.19
2023-03-15T22:04:48.697Z,101240.75
2023-03-15T22:07:15.282Z,101211.47
2023-03-15T22:09:43.259Z,101231.47
2023-03-15T22:12:10.345Z,101252.75
2023-03-15T22:14:37.143Z,101242.47
2023-03-15T22:17:04.706Z,101258.22
2023-03-15T22:19:32.227Z,101238.75
2023-03-15T22:21:58.871Z,101255.56
2023-03-15T22:24:25.600Z,101255.78
2023-03-15T22:26:53.180Z,101233.06
2023-03-15T22:29:19.962Z,101250.50
2023-03-15T22:31:46.731Z,101256.56
2023-03-15T22:34:13.276Z,101231.53
2023-03-15T22:36:39.777Z,101230.13
2023-03-15T22:39:07.612Z,101247.22
2023-03-15T22:41:34.997Z,101202.88
2023-03-15T22:44:01.635Z,101196.56
2023-03-15T22:46:28.512Z,101235.69
2023-03-15T22:48:55.198Z,101218.72
2023-03-15T22:51:21.920Z,101220.41
2023-03-15T22:53:48.514Z,101245.22
2023-03-15T22:56:15.560Z,101256.25
2023-03-15T22:58:42.217Z,101254.16
2023-03-15T23:01:09.996Z,101247.09
2023-03-15T23:03:37.046Z,101235.81
2023-03-15T23:06:03.779Z,101230.91
2023-03-15T23:08:30.641Z,101237.28
2023-03-15T23:10:58.611Z,101192.72
2023-03-15T23:13:25.360Z,101195.28
2023-03-15T23:15:51.910Z,101212.22
2023-03-15T23:18:18.696Z,101199.84
2023-03-15T23:20:45.470Z,101233.66
2023-03-15T23:23:12.185Z,101205.72
2023-03-15T23:25:39.493Z,101232.00
2023-03-15T23:28:07.063Z,101193.94
2023-03-15T23:30:35.663Z,101240.44
2023-03-15T23:33:03.669Z,101233.69
2023-03-15T23:35:31.749Z,101243.53
2023-03-15T23:37:58.794Z,101208.84
2023-03-15T23:40:26.033Z,101205.47
2023-03-15T23:42:59.462Z,101228.44
2023-03-15T23:45:29.429Z,101237.66
2023-03-15T23:47:56.547Z,101221.69
2023-03-15T23:50:27.147Z,101236.56
2023-03-15T23:52:55.906Z,101242.66
2023-03-15T23:55:23.840Z,101190.16
2023-03-15T23:57:51.020Z,101185.66
